Airfield :
LOGIN :

Register | Disclaimer

   EN    FR    IT 

 










Legend :    VFR   Marginal VFR   IFR   Intensive IFR   Very Intensive IFR
Visi :
Ceiling :
>= 8 km
>= 3000ft
5 to 8 km
1000 to 3000 ft
1500m to 5 km
500 to 1000 ft
800 to 1500m
200 to 500 ft
< 800m
< 200 ft
Symbols :   Thunderstorms  Fog  Heavy snow  Heavy precipitations  Wind > 20 kt
SIGMETs :     Misc.  Thunderstorms  Icing  Turbulence  Mountain Waves  Volcanic Ashes







- Airport Elevation : 1213 ft
- IATA code : SCQ


LEST - Santiago de Compostela

CURRENT METAR :
  • 261230Z 16008KT 120V190 9999 SCT023 BKN035 10/06 Q1008 NOSIG

EXPIRED METARs :
  • 261200Z 18014KT 9999 SCT023 BKN040 10/05 Q1008 TEMPO SHRA SCT025TCU
  • 261130Z 17013KT 9999 SCT022 SCT045 09/05 Q1008 TEMPO SHRA SCT025TCU
  • 261100Z 18012KT 9999 BKN022 BKN040 09/06 Q1008 TEMPO SHRA SCT025TCU
  • 261030Z 16010KT 140V200 9999 SCT020 BKN030 08/05 Q1008 TEMPO SHRA SCT025TCU
  • 261000Z 17011KT 9999 SCT035 BKN045 08/06 Q1008 TEMPO SHRA SCT025TCU

TAF TAF LEST
Valid from the 26 at 12:00 until the 27 at 12:00 UTC


261100Z 2612/2712 18009KT 9999 SCT020 BKN035 TX14/2615Z TN07/2706Z
PROB40
TEMPO 2612/2618 16015G25KT SHRA SCT025TCU
TEMPO 2618/2624 3000 SHRA BKN010 BKN020TCU
PROB30
TEMPO 2612/2622 TSRA SCT030CB
PROB40
TEMPO 2702/2712 3000 RA BKN010
PROB30
TEMPO 2703/2707 0800 RA BCFG BKN003
No reported NOTAMs for that airfield.
1 SIGMET reported for the Madrid FIR (LECM) :
 
Severe turbulence
LECM SIGMET 5 VALID 261200/261600 LEVA
LECM MADRID FIR/UIR SEV TURB FCST WI N4230 W01130 - N45 W010 - N4340 W00150 - N4330 W00810 - N42 W00930 FL230/300 MOV N 10KT WKN=



MET'MAP, your aeronautical weather chart ! - Copyright ORBIFLY December 2007 - Disclaimer

ORBIFLY MET'MAP TEAM :

Programming & Development : Alexandra Zaïnal
Concept & Development : Baudouin d'Aumeries
Co-Development & Prog : Marc-Olivier Méhu
Technical & hardware support : Manuel Goepfert

Contact : metmap@orbifly.com




SOURCES & CREDITS :

   NOAA